Cromwell, Washington
Current Conditions -  °F | °C
As of 4:53 PM on Monday 22 Dec 2014 (Local Time) from KTIW Reporting Station
Broken Clouds Broken Clouds  
Wind Chill: 46°   Ceiling: 12000
Heat Index: 46°   Visibility: 10mi
Dew Point: 41°   Wind: 0mph
Humidity: 83%   Direction: NA
Pressure: 30.35"   Gusts: NA
Location:  47.2986°N, 122.616°W
Report Text: KTIW 230053Z 00000KT 10SM BKN120 08/05 A3035 RMK AO2 SLP281 T00780050
Loading
Personal Weather Stations






























Interactive Weather Map New forecast layout! Learn more

10-Day Weather Forecast

Advertisements
Track Severe Weather on mobile